Vaughn, Washington
Current Conditions -  °F | °C
As of 11:01 PM on Thursday 27 Nov 2014 (Local Time) from KTIW Reporting Station
Overcast Overcast  
Wind Chill: 53°   Ceiling: 3600
Heat Index: 53°   Visibility: 10mi
Dew Point: 50°   Wind: 16mph
Humidity: 89%   Direction: 190°S
Pressure: 29.71"   Gusts: 23mph
Location:  47.34°N, 122.77°W
Report Text: KTIW 280701Z AUTO 19014G20KT 10SM FEW017 FEW028 OVC036 12/10 A2971 RMK AO2 RAE01 P0000 T01170100 $
Loading
Personal Weather Stations






























Interactive Weather Map New forecast layout! Learn more

10-Day Weather Forecast

Advertisements
Track Severe Weather on mobile